createdAt,value
2018-03-07T00:00:32.988Z,64.73
2018-03-07T00:03:01.337Z,67.00
2018-03-07T00:05:28.896Z,64.10
2018-03-07T00:07:56.461Z,73.00
2018-03-07T00:10:24.041Z,73.50
2018-03-07T00:12:51.629Z,73.13
2018-03-07T00:15:19.195Z,75.53
2018-03-07T00:17:46.783Z,78.30
2018-03-07T00:20:14.351Z,65.10
2018-03-07T00:22:41.940Z,71.87
2018-03-07T00:25:09.507Z,72.87
2018-03-07T00:27:37.830Z,73.73
2018-03-07T00:30:05.408Z,75.33
2018-03-07T00:32:32.956Z,72.30
2018-03-07T00:35:00.580Z,76.50
2018-03-07T00:37:28.158Z,67.87
2018-03-07T00:39:55.744Z,72.50
2018-03-07T00:42:23.328Z,75.20
2018-03-07T00:44:50.932Z,68.20
2018-03-07T00:47:18.510Z,65.40
2018-03-07T00:49:46.084Z,79.47
2018-03-07T00:52:13.688Z,74.90
2018-03-07T00:54:42.012Z,68.77
2018-03-07T00:57:09.593Z,72.03
2018-03-07T00:59:37.177Z,81.43
2018-03-07T01:02:04.758Z,79.70
2018-03-07T01:04:33.121Z,77.30
2018-03-07T01:07:01.487Z,71.23
2018-03-07T01:09:29.101Z,77.13
2018-03-07T01:11:56.652Z,72.43
2018-03-07T01:14:24.218Z,74.93
2018-03-07T01:16:51.798Z,69.30
2018-03-07T01:19:19.357Z,70.30
2018-03-07T01:21:46.949Z,83.23
2018-03-07T01:24:14.506Z,70.37
2018-03-07T01:26:42.064Z,74.30
2018-03-07T01:29:09.652Z,74.40
2018-03-07T01:31:37.976Z,66.27
2018-03-07T01:34:05.572Z,71.17
2018-03-07T01:36:33.148Z,67.53
2018-03-07T01:39:01.465Z,77.07
2018-03-07T01:41:29.043Z,66.33
2018-03-07T01:43:56.629Z,66.07
2018-03-07T01:46:24.184Z,74.47
2018-03-07T01:48:51.732Z,73.07
2018-03-07T01:51:19.307Z,74.23
2018-03-07T01:53:46.883Z,74.20
2018-03-07T01:56:15.244Z,77.30
2018-03-07T01:58:42.804Z,77.00
2018-03-07T02:01:10.388Z,77.83
2018-03-07T02:03:38.709Z,78.30
2018-03-07T02:06:06.264Z,77.90
2018-03-07T02:08:33.852Z,78.80
2018-03-07T02:11:01.409Z,80.37
2018-03-07T02:13:28.988Z,77.80
2018-03-07T02:15:57.313Z,78.20
2018-03-07T02:18:24.898Z,82.50
2018-03-07T02:20:52.501Z,81.67
2018-03-07T02:23:20.816Z,90.10
2018-03-07T02:25:48.378Z,88.40
2018-03-07T02:28:15.949Z,75.47
2018-03-07T02:30:43.535Z,80.40
2018-03-07T02:33:11.123Z,83.30
2018-03-07T02:35:38.774Z,86.00
2018-03-07T02:38:07.129Z,90.37
2018-03-07T02:40:34.690Z,89.37
2018-03-07T02:43:02.273Z,81.07
2018-03-07T02:45:30.589Z,83.60
2018-03-07T02:47:58.172Z,86.17
2018-03-07T02:50:26.550Z,84.87
2018-03-07T02:52:54.105Z,88.43
2018-03-07T02:55:21.698Z,85.07
2018-03-07T02:57:49.252Z,81.23
2018-03-07T03:00:16.805Z,91.10
2018-03-07T03:02:45.174Z,85.13
2018-03-07T03:05:12.756Z,86.20
2018-03-07T03:07:41.088Z,90.83
2018-03-07T03:10:08.676Z,93.83
2018-03-07T03:12:36.248Z,86.00
2018-03-07T03:15:03.798Z,95.70
2018-03-07T03:17:31.385Z,90.83
2018-03-07T03:19:59.708Z,92.07
2018-03-07T03:22:27.309Z,87.47
2018-03-07T03:24:54.859Z,87.00
2018-03-07T03:27:23.212Z,91.30
2018-03-07T03:29:50.820Z,94.50
2018-03-07T03:32:19.137Z,92.43
2018-03-07T03:34:46.717Z,92.10
2018-03-07T03:37:14.308Z,87.77
2018-03-07T03:39:42.632Z,78.80
2018-03-07T03:42:10.210Z,84.60
2018-03-07T03:44:37.764Z,85.50
2018-03-07T03:47:05.418Z,85.70
2018-03-07T03:49:32.976Z,92.97
2018-03-07T03:52:00.562Z,90.57
2018-03-07T03:54:28.123Z,80.23
2018-03-07T03:56:55.699Z,84.97
2018-03-07T03:59:23.260Z,86.57
2018-03-07T04:01:51.644Z,78.47
2018-03-07T04:04:19.224Z,81.53
2018-03-07T04:06:47.544Z,84.10
2018-03-07T04:09:15.122Z,86.67
2018-03-07T04:11:42.683Z,81.90
2018-03-07T04:14:10.420Z,86.97
2018-03-07T04:16:37.984Z,79.00
2018-03-07T04:19:05.556Z,83.43
2018-03-07T04:21:33.133Z,82.67
2018-03-07T04:24:00.700Z,85.47
2018-03-07T04:26:28.272Z,69.90
2018-03-07T04:28:56.588Z,85.00
2018-03-07T04:31:24.160Z,76.33
2018-03-07T04:33:51.760Z,76.83
2018-03-07T04:36:19.344Z,77.77
2018-03-07T04:38:47.738Z,83.43
2018-03-07T04:41:16.035Z,78.23
2018-03-07T04:43:43.588Z,75.83
2018-03-07T04:46:11.176Z,83.60
2018-03-07T04:48:38.730Z,80.33
2018-03-07T04:51:06.296Z,75.10
2018-03-07T04:53:33.868Z,77.90
2018-03-07T04:56:01.448Z,82.53
2018-03-07T04:58:29.766Z,79.53
2018-03-07T05:00:57.322Z,76.47
2018-03-07T05:03:24.904Z,75.23
2018-03-07T05:05:52.461Z,64.97
2018-03-07T05:08:20.032Z,63.10
2018-03-07T05:10:47.599Z,64.47
2018-03-07T05:13:15.198Z,71.77
2018-03-07T05:15:42.801Z,67.93
2018-03-07T05:18:10.361Z,69.37
2018-03-07T05:20:38.036Z,71.40
2018-03-07T05:23:05.612Z,61.93
2018-03-07T05:25:33.174Z,75.17
2018-03-07T05:28:00.757Z,72.37
2018-03-07T05:30:28.317Z,76.50
2018-03-07T05:32:56.651Z,67.47
2018-03-07T05:35:24.212Z,69.67
2018-03-07T05:37:51.766Z,85.20
2018-03-07T05:40:19.341Z,68.57
2018-03-07T05:42:46.899Z,72.60
2018-03-07T05:45:14.457Z,76.80
2018-03-07T05:47:42.033Z,64.30
2018-03-07T05:50:09.584Z,71.37
2018-03-07T05:52:37.172Z,69.20
2018-03-07T05:55:05.496Z,76.07
2018-03-07T05:57:33.066Z,77.10
2018-03-07T06:00:00.644Z,82.47
2018-03-07T06:02:28.229Z,80.00
2018-03-07T06:04:56.550Z,86.90
2018-03-07T06:07:24.132Z,91.50
2018-03-07T06:09:51.761Z,82.03
2018-03-07T06:12:19.306Z,83.10
2018-03-07T06:14:46.877Z,87.47
2018-03-07T06:17:14.466Z,78.63
2018-03-07T06:19:42.027Z,69.63
2018-03-07T06:22:09.599Z,74.93
2018-03-07T06:24:37.183Z,73.43
2018-03-07T06:27:05.533Z,71.27
2018-03-07T06:29:33.959Z,73.43
2018-03-07T06:32:01.513Z,75.47
2018-03-07T06:34:29.092Z,71.70
2018-03-07T06:36:56.681Z,73.77
2018-03-07T06:39:24.232Z,74.07
2018-03-07T06:41:51.796Z,68.97
2018-03-07T06:44:20.152Z,69.80
2018-03-07T06:46:47.705Z,70.20
2018-03-07T06:49:15.312Z,65.80
2018-03-07T06:51:42.864Z,70.03
2018-03-07T06:54:10.415Z,66.30
2018-03-07T06:56:37.997Z,71.73
2018-03-07T06:59:05.547Z,71.93
2018-03-07T07:01:33.120Z,67.73
2018-03-07T07:04:00.681Z,69.10
2018-03-07T07:06:29.086Z,66.60
2018-03-07T07:08:56.659Z,69.10
2018-03-07T07:11:24.216Z,67.77
2018-03-07T07:13:51.792Z,65.57
2018-03-07T07:16:19.397Z,62.47
2018-03-07T07:18:47.030Z,66.33
2018-03-07T07:21:14.610Z,66.50
2018-03-07T07:23:42.165Z,58.77
2018-03-07T07:26:09.740Z,61.00
2018-03-07T07:28:37.314Z,62.97
2018-03-07T07:31:04.904Z,54.10
2018-03-07T07:33:32.496Z,60.27
2018-03-07T07:36:00.069Z,62.20
2018-03-07T07:38:27.641Z,59.07
2018-03-07T07:40:55.221Z,63.33
2018-03-07T07:43:23.614Z,60.10
2018-03-07T07:45:51.922Z,67.77
2018-03-07T07:48:19.507Z,61.60
2018-03-07T07:50:47.098Z,63.83
2018-03-07T07:53:15.439Z,51.60
2018-03-07T07:55:43.044Z,57.67
2018-03-07T07:58:11.360Z,56.83
2018-03-07T08:00:38.931Z,60.07
2018-03-07T08:03:07.283Z,60.73
2018-03-07T08:05:34.845Z,58.20
2018-03-07T08:08:02.429Z,57.50
2018-03-07T08:10:29.992Z,55.50
2018-03-07T08:12:57.597Z,61.10
2018-03-07T08:15:25.930Z,53.90
2018-03-07T08:17:53.496Z,54.43
2018-03-07T08:20:21.083Z,49.13
2018-03-07T08:22:49.401Z,49.20
2018-03-07T08:25:16.984Z,52.47
2018-03-07T08:27:44.587Z,51.93
2018-03-07T08:30:12.153Z,52.63
2018-03-07T08:32:40.477Z,45.97
2018-03-07T08:35:08.050Z,53.90
2018-03-07T08:37:35.630Z,48.77
2018-03-07T08:40:03.190Z,51.50
2018-03-07T08:42:30.769Z,53.30
2018-03-07T08:44:59.086Z,55.50
2018-03-07T08:47:27.424Z,62.37
2018-03-07T08:49:56.282Z,53.93
2018-03-07T08:52:23.833Z,59.03
2018-03-07T08:54:51.445Z,52.63
2018-03-07T08:57:19.832Z,55.00
2018-03-07T08:59:47.388Z,59.23
2018-03-07T09:02:14.946Z,52.27
2018-03-07T09:04:42.519Z,55.40
2018-03-07T09:07:10.072Z,59.30
2018-03-07T09:09:37.656Z,58.80
2018-03-07T09:12:05.226Z,60.10
2018-03-07T09:14:32.792Z,57.47
2018-03-07T09:17:00.373Z,63.30
2018-03-07T09:19:27.956Z,62.70
2018-03-07T09:21:56.282Z,59.10
2018-03-07T09:24:23.888Z,54.77
2018-03-07T09:26:52.218Z,59.33
2018-03-07T09:29:19.802Z,54.47
2018-03-07T09:31:47.376Z,58.80
2018-03-07T09:34:14.941Z,53.97
2018-03-07T09:36:43.285Z,55.50
2018-03-07T09:39:10.844Z,57.43
2018-03-07T09:41:38.435Z,56.00
2018-03-07T09:44:06.082Z,51.23
2018-03-07T09:46:33.645Z,60.07
2018-03-07T09:49:01.236Z,54.20
2018-03-07T09:51:28.820Z,52.70
2018-03-07T09:53:56.406Z,51.03
2018-03-07T09:56:24.030Z,54.50
2018-03-07T09:58:52.333Z,46.93
2018-03-07T10:01:19.923Z,46.70
2018-03-07T10:03:47.520Z,48.73
2018-03-07T10:06:15.083Z,49.13
2018-03-07T10:08:42.684Z,44.77
2018-03-07T10:11:10.249Z,46.00
2018-03-07T10:13:37.810Z,39.10
2018-03-07T10:16:05.399Z,39.57
2018-03-07T10:18:33.751Z,36.80
2018-03-07T10:21:01.309Z,45.40
2018-03-07T10:23:29.651Z,54.40
2018-03-07T10:25:57.233Z,48.20
2018-03-07T10:28:24.813Z,46.40
2018-03-07T10:30:52.417Z,43.40
2018-03-07T10:33:26.780Z,43.83
2018-03-07T10:35:54.370Z,44.27
2018-03-07T10:38:22.700Z,44.20
2018-03-07T10:40:50.287Z,45.70
2018-03-07T10:43:17.841Z,44.20
2018-03-07T10:45:45.397Z,48.80
2018-03-07T10:48:13.000Z,50.13
2018-03-07T10:50:41.320Z,51.60
2018-03-07T10:53:08.871Z,49.43
2018-03-07T10:55:36.506Z,49.33
2018-03-07T10:58:04.094Z,48.83
2018-03-07T11:00:37.228Z,46.43
2018-03-07T11:03:05.177Z,47.00
2018-03-07T11:05:32.791Z,33.17
2018-03-07T11:08:00.352Z,32.50
2018-03-07T11:10:27.944Z,34.03
2018-03-07T11:12:55.509Z,31.70
2018-03-07T11:15:23.089Z,32.13
2018-03-07T11:17:50.646Z,38.60
2018-03-07T11:20:18.345Z,29.83
2018-03-07T11:22:46.683Z,42.23
2018-03-07T11:25:14.289Z,43.60
2018-03-07T11:27:42.618Z,52.40
2018-03-07T11:30:10.201Z,50.57
2018-03-07T11:32:37.840Z,49.83
2018-03-07T11:35:05.397Z,47.87
2018-03-07T11:37:32.972Z,48.47
2018-03-07T11:40:00.550Z,54.27
2018-03-07T11:42:28.112Z,52.73
2018-03-07T11:44:55.680Z,54.80
2018-03-07T11:47:24.009Z,49.43
2018-03-07T11:49:51.596Z,52.13
2018-03-07T11:52:19.179Z,44.20
2018-03-07T11:54:47.517Z,50.53
2018-03-07T11:57:15.116Z,47.97
2018-03-07T11:59:43.436Z,47.03
2018-03-07T12:02:11.008Z,44.73
2018-03-07T12:04:38.599Z,43.53
2018-03-07T12:07:06.184Z,39.53
2018-03-07T12:09:34.509Z,39.03
2018-03-07T12:12:02.056Z,36.53
2018-03-07T12:14:29.629Z,41.90
2018-03-07T12:16:57.184Z,38.20
2018-03-07T12:19:24.784Z,41.23
2018-03-07T12:21:52.340Z,43.57
2018-03-07T12:24:19.895Z,36.63
2018-03-07T12:26:47.477Z,40.43
2018-03-07T12:29:15.832Z,38.17
2018-03-07T12:31:43.498Z,53.47
2018-03-07T12:34:11.033Z,37.80
2018-03-07T12:36:38.593Z,35.40
2018-03-07T12:39:06.180Z,41.10
2018-03-07T12:41:33.756Z,35.00
2018-03-07T12:44:02.122Z,32.90
2018-03-07T12:46:30.461Z,39.20
2018-03-07T12:48:58.021Z,37.23
2018-03-07T12:51:25.592Z,39.53
2018-03-07T12:53:53.169Z,40.20
2018-03-07T12:56:20.752Z,39.47
2018-03-07T12:58:49.077Z,37.50
2018-03-07T13:01:16.638Z,38.73
2018-03-07T13:03:44.216Z,39.93
2018-03-07T13:06:11.793Z,36.60
2018-03-07T13:08:39.357Z,45.93
2018-03-07T13:11:07.762Z,34.10
2018-03-07T13:13:35.375Z,31.43
2018-03-07T13:16:02.949Z,36.37
2018-03-07T13:18:30.505Z,40.20
2018-03-07T13:20:58.086Z,37.30
2018-03-07T13:23:26.416Z,38.80
2018-03-07T13:25:53.998Z,38.40
2018-03-07T13:28:21.564Z,45.60
2018-03-07T13:30:49.150Z,42.43
2018-03-07T13:33:17.493Z,51.47
2018-03-07T13:35:45.841Z,45.20
2018-03-07T13:38:13.417Z,45.90
2018-03-07T13:40:40.972Z,46.20
2018-03-07T13:43:08.579Z,52.57
2018-03-07T13:45:36.932Z,52.30
2018-03-07T13:48:04.501Z,61.37
2018-03-07T13:50:32.081Z,56.70
2018-03-07T13:53:00.429Z,54.30
2018-03-07T13:55:28.025Z,52.47
2018-03-07T13:57:55.596Z,53.93
2018-03-07T14:00:23.180Z,53.43
2018-03-07T14:02:50.783Z,52.43
2018-03-07T14:05:18.386Z,55.50
2018-03-07T14:07:45.924Z,58.00
2018-03-07T14:10:13.516Z,59.17
2018-03-07T14:12:41.076Z,52.60
2018-03-07T14:15:08.657Z,64.17
2018-03-07T14:17:36.238Z,67.90
2018-03-07T14:20:03.821Z,66.30
2018-03-07T14:22:32.161Z,62.43
2018-03-07T14:24:59.806Z,65.20
2018-03-07T14:27:27.371Z,66.17
2018-03-07T14:29:54.940Z,69.13
2018-03-07T14:32:22.536Z,65.70
2018-03-07T14:34:50.858Z,72.17
2018-03-07T14:37:18.424Z,81.13
2018-03-07T14:39:45.992Z,75.63
2018-03-07T14:42:13.600Z,92.57
2018-03-07T14:44:41.169Z,77.00
2018-03-07T14:47:08.768Z,81.07
2018-03-07T14:49:36.419Z,85.77
2018-03-07T14:52:03.965Z,82.40
2018-03-07T14:54:31.563Z,94.40
2018-03-07T14:56:59.175Z,90.90
2018-03-07T14:59:26.736Z,79.63
2018-03-07T15:01:54.311Z,80.60
2018-03-07T15:04:21.898Z,86.17
2018-03-07T15:06:49.465Z,85.23
2018-03-07T15:09:17.061Z,89.33
2018-03-07T15:11:45.385Z,89.80
2018-03-07T15:14:12.945Z,95.13
2018-03-07T15:16:40.524Z,101.43
2018-03-07T15:19:08.094Z,101.87
2018-03-07T15:21:35.672Z,95.97
2018-03-07T15:24:04.017Z,99.63
2018-03-07T15:26:31.576Z,100.97
2018-03-07T15:28:59.159Z,101.03
2018-03-07T15:31:26.733Z,93.97
2018-03-07T15:33:55.062Z,95.43
2018-03-07T15:36:22.669Z,103.17
2018-03-07T15:38:51.000Z,103.80
2018-03-07T15:41:18.580Z,100.40
2018-03-07T15:43:46.154Z,106.97
2018-03-07T15:46:13.716Z,102.80
2018-03-07T15:48:42.073Z,97.27
2018-03-07T15:51:09.657Z,105.83
2018-03-07T15:53:37.282Z,104.13
2018-03-07T15:56:04.896Z,104.60
2018-03-07T15:58:33.251Z,93.00
2018-03-07T16:01:00.810Z,95.20
2018-03-07T16:03:28.390Z,96.30
2018-03-07T16:05:56.713Z,90.57
2018-03-07T16:08:24.297Z,91.90
2018-03-07T16:10:51.862Z,95.83
2018-03-07T16:13:19.419Z,92.40
2018-03-07T16:15:47.004Z,93.00
2018-03-07T16:18:15.335Z,97.80
2018-03-07T16:20:42.920Z,96.40
2018-03-07T16:23:10.484Z,95.23
2018-03-07T16:25:38.040Z,92.33
2018-03-07T16:28:05.629Z,101.13
2018-03-07T16:30:33.957Z,115.23
2018-03-07T16:33:01.511Z,111.63
2018-03-07T16:35:29.105Z,107.37
2018-03-07T16:37:56.692Z,116.70
2018-03-07T16:40:24.253Z,105.30
2018-03-07T16:42:51.848Z,115.23
2018-03-07T16:45:19.425Z,118.00
2018-03-07T16:47:47.016Z,115.13
2018-03-07T16:50:14.573Z,115.33
2018-03-07T16:52:42.155Z,108.70
2018-03-07T16:55:09.750Z,118.20
2018-03-07T16:57:37.309Z,119.90
2018-03-07T17:00:04.903Z,115.27
2018-03-07T17:02:32.457Z,115.77
2018-03-07T17:05:00.025Z,118.77
2018-03-07T17:07:27.616Z,117.57
2018-03-07T17:09:55.943Z,112.17
2018-03-07T17:12:23.544Z,120.73
2018-03-07T17:14:51.876Z,125.73
2018-03-07T17:17:19.437Z,119.30
2018-03-07T17:19:47.021Z,115.27
2018-03-07T17:22:14.585Z,132.40
2018-03-07T17:24:42.196Z,119.53
2018-03-07T17:27:09.765Z,125.10
2018-03-07T17:29:37.378Z,124.33
2018-03-07T17:32:05.724Z,121.80
2018-03-07T17:34:33.304Z,124.73
2018-03-07T17:37:00.908Z,117.83
2018-03-07T17:39:28.492Z,115.57
2018-03-07T17:41:56.069Z,113.47
2018-03-07T17:44:23.657Z,118.30
2018-03-07T17:46:51.980Z,115.00
2018-03-07T17:49:19.584Z,105.70
2018-03-07T17:51:47.144Z,118.20
2018-03-07T17:54:14.739Z,117.10
2018-03-07T17:56:42.304Z,119.67
2018-03-07T17:59:09.880Z,112.37
2018-03-07T18:01:37.464Z,114.03
2018-03-07T18:04:05.040Z,112.33
2018-03-07T18:06:32.632Z,115.57
2018-03-07T18:09:00.220Z,110.30
2018-03-07T18:11:27.784Z,110.17
2018-03-07T18:13:55.341Z,102.83
2018-03-07T18:16:22.955Z,107.23
2018-03-07T18:18:51.337Z,107.63
2018-03-07T18:21:19.694Z,108.37
2018-03-07T18:23:47.272Z,108.17
2018-03-07T18:26:14.864Z,113.00
2018-03-07T18:28:42.444Z,110.73
2018-03-07T18:31:10.029Z,117.50
2018-03-07T18:33:37.592Z,112.40
2018-03-07T18:36:05.149Z,109.73
2018-03-07T18:38:32.722Z,96.50
2018-03-07T18:41:00.300Z,102.20
2018-03-07T18:43:28.628Z,108.53
2018-03-07T18:45:56.209Z,106.43
2018-03-07T18:48:24.533Z,94.93
2018-03-07T18:50:52.160Z,101.63
2018-03-07T18:53:19.752Z,98.50
2018-03-07T18:55:47.332Z,100.47
2018-03-07T18:58:14.930Z,101.33
2018-03-07T19:00:42.493Z,101.93
2018-03-07T19:03:10.083Z,96.77
2018-03-07T19:05:38.492Z,99.70
2018-03-07T19:08:06.045Z,93.87
2018-03-07T19:10:33.640Z,89.90
2018-03-07T19:13:01.213Z,96.90
2018-03-07T19:15:28.800Z,101.10
2018-03-07T19:17:57.177Z,100.77
2018-03-07T19:20:25.523Z,107.20
2018-03-07T19:22:53.159Z,100.73
2018-03-07T19:25:20.714Z,96.60
2018-03-07T19:27:48.305Z,103.73
2018-03-07T19:30:15.884Z,104.17
2018-03-07T19:32:43.491Z,104.80
2018-03-07T19:35:11.066Z,99.30
2018-03-07T19:37:38.650Z,100.13
2018-03-07T19:40:06.260Z,94.33
2018-03-07T19:42:33.851Z,106.80
2018-03-07T19:45:01.410Z,110.77
2018-03-07T19:47:29.018Z,100.80
2018-03-07T19:49:57.343Z,96.00
2018-03-07T19:52:24.908Z,101.17
2018-03-07T19:54:52.490Z,105.27
2018-03-07T19:57:20.053Z,108.87
2018-03-07T19:59:47.645Z,105.40
2018-03-07T20:02:15.988Z,108.07
2018-03-07T20:04:43.575Z,90.90
2018-03-07T20:07:11.196Z,98.53
2018-03-07T20:09:38.772Z,112.30
2018-03-07T20:12:06.345Z,106.50
2018-03-07T20:14:34.697Z,94.57
2018-03-07T20:17:02.338Z,107.33
2018-03-07T20:19:29.926Z,92.90
2018-03-07T20:21:57.530Z,97.73
2018-03-07T20:24:25.096Z,100.07
2018-03-07T20:26:52.659Z,98.10
2018-03-07T20:29:20.245Z,115.90
2018-03-07T20:31:47.797Z,97.00
2018-03-07T20:34:15.525Z,98.67
2018-03-07T20:36:43.853Z,89.23
2018-03-07T20:39:11.431Z,88.50
2018-03-07T20:41:38.987Z,87.30
2018-03-07T20:44:06.568Z,99.70
2018-03-07T20:46:34.144Z,86.10
2018-03-07T20:49:01.733Z,108.87
2018-03-07T20:51:29.298Z,109.70
2018-03-07T20:53:56.963Z,106.97
2018-03-07T20:56:24.584Z,109.70
2018-03-07T20:58:52.908Z,110.27
2018-03-07T21:01:20.471Z,106.10
2018-03-07T21:03:48.048Z,109.30
2018-03-07T21:06:15.602Z,101.67
2018-03-07T21:08:43.176Z,96.73
2018-03-07T21:11:10.761Z,99.93
2018-03-07T21:13:39.091Z,99.07
2018-03-07T21:16:06.665Z,98.70
2018-03-07T21:18:34.274Z,97.80
2018-03-07T21:21:01.832Z,97.70
2018-03-07T21:23:29.429Z,99.60
2018-03-07T21:25:57.009Z,101.17
2018-03-07T21:28:24.570Z,106.50
2018-03-07T21:30:52.156Z,94.70
2018-03-07T21:33:20.484Z,106.67
2018-03-07T21:35:48.048Z,88.83
2018-03-07T21:38:15.633Z,106.73
2018-03-07T21:40:43.300Z,108.73
2018-03-07T21:43:10.861Z,102.13
2018-03-07T21:45:38.467Z,101.90
2018-03-07T21:48:06.040Z,99.67
2018-03-07T21:50:33.649Z,91.33
2018-03-07T21:53:01.228Z,91.67
2018-03-07T21:55:28.863Z,110.90
2018-03-07T21:57:56.505Z,112.47
2018-03-07T22:00:24.077Z,111.73
2018-03-07T22:02:51.649Z,100.97
2018-03-07T22:05:19.226Z,107.67
2018-03-07T22:07:47.565Z,99.50
2018-03-07T22:10:15.145Z,99.53
2018-03-07T22:12:42.727Z,106.23
2018-03-07T22:15:11.084Z,97.27
2018-03-07T22:17:38.636Z,99.37
2018-03-07T22:20:06.216Z,107.73
2018-03-07T22:22:34.575Z,111.27
2018-03-07T22:25:02.132Z,104.40
2018-03-07T22:27:29.701Z,108.83
2018-03-07T22:29:58.060Z,106.27
2018-03-07T22:32:25.641Z,100.37
2018-03-07T22:34:53.220Z,101.80
2018-03-07T22:37:21.548Z,110.57
2018-03-07T22:39:49.156Z,96.43
2018-03-07T22:42:17.517Z,100.63
2018-03-07T22:44:45.077Z,97.77
2018-03-07T22:47:12.654Z,93.50
2018-03-07T22:49:40.985Z,99.70
2018-03-07T22:52:08.555Z,95.97
2018-03-07T22:54:36.126Z,93.57
2018-03-07T22:57:03.700Z,96.87
2018-03-07T22:59:31.254Z,91.63
2018-03-07T23:01:58.832Z,93.53
2018-03-07T23:04:27.155Z,88.60
2018-03-07T23:06:54.770Z,95.23
2018-03-07T23:09:23.114Z,103.73
2018-03-07T23:11:50.689Z,96.87
2018-03-07T23:14:18.268Z,98.93
2018-03-07T23:16:46.611Z,107.47
2018-03-07T23:19:14.169Z,101.43
2018-03-07T23:21:41.746Z,92.57
2018-03-07T23:24:09.305Z,102.93
2018-03-07T23:26:36.880Z,106.40
2018-03-07T23:29:05.201Z,108.93
2018-03-07T23:31:32.789Z,112.00
2018-03-07T23:34:00.365Z,105.03
2018-03-07T23:36:27.927Z,121.93
2018-03-07T23:38:55.509Z,104.80
2018-03-07T23:41:23.852Z,98.93
2018-03-07T23:43:51.432Z,123.70
2018-03-07T23:46:19.753Z,114.90
2018-03-07T23:48:47.307Z,106.93
2018-03-07T23:51:14.888Z,114.97
2018-03-07T23:53:42.470Z,117.93
2018-03-07T23:56:10.047Z,115.30
2018-03-07T23:58:37.615Z,132.67
